Time;durP1;ratioP1;P1;durP2;ratioP2;P2;SDS_P1;SDS_P2;PMS_P1;PMS_P2;Temp;Humidity;BMP_temperature;BMP_pressure;BME280_temperature;BME280_humidity;BME280_pressure;Samples;Min_cycle;Max_cycle;Signal;HPM_P1;HPM_P2
2021/12/14 00:01:04;;;;;;;9.65;4.95;;;;;;;0.48;71.45;95792.44;5006619;28;20132;-76
2021/12/14 00:03:31;;;;;;;7.63;5.07;;;;;;;0.48;71.92;95802.97;4992993;28;20025;-77
2021/12/14 00:05:56;;;;;;;8.68;4.50;;;;;;;0.42;72.52;95800.78;5007227;28;20025;-77
2021/12/14 00:08:25;;;;;;;8.52;4.68;;;;;;;0.42;72.24;95809.50;5008951;28;20112;-76
2021/12/14 00:13:47;;;;;;;8.00;4.82;;;;;;;0.47;71.82;95807.41;5009596;28;20476;-77
2021/12/14 00:16:14;;;;;;;10.90;5.28;;;;;;;0.43;72.17;95802.44;4971069;28;20047;-78
2021/12/14 00:18:39;;;;;;;7.43;4.50;;;;;;;0.43;72.35;95800.66;4983279;28;20512;-77
2021/12/14 00:21:20;;;;;;;11.40;4.55;;;;;;;0.47;72.05;95801.28;4952407;28;20476;-76
2021/12/14 00:24:06;;;;;;;10.52;5.10;;;;;;;0.44;71.88;95801.50;4967182;28;20026;-77
2021/12/14 00:26:51;;;;;;;7.70;5.53;;;;;;;0.35;72.33;95808.25;4971404;28;20081;-76
2021/12/14 00:29:22;;;;;;;8.75;5.35;;;;;;;0.33;72.19;95812.78;4988069;28;20440;-75
2021/12/14 00:31:48;;;;;;;9.98;4.93;;;;;;;0.23;73.05;95812.56;4970296;28;20046;-76
2021/12/14 00:34:22;;;;;;;8.20;5.15;;;;;;;0.22;72.88;95819.66;4956097;28;20440;-77
2021/12/14 00:36:47;;;;;;;13.88;5.72;;;;;;;0.21;73.56;95817.13;4971291;28;20501;-76
2021/12/14 00:39:13;;;;;;;8.23;5.28;;;;;;;0.26;74.00;95820.25;4971152;28;20042;-76
2021/12/14 00:41:39;;;;;;;9.43;5.15;;;;;;;0.29;73.58;95814.78;4987448;28;20089;-75
2021/12/14 00:44:05;;;;;;;9.18;5.22;;;;;;;0.33;72.85;95810.16;4970467;28;20041;-76
2021/12/14 00:46:30;;;;;;;9.15;5.78;;;;;;;0.36;73.22;95816.06;4996123;28;20060;-78
2021/12/14 00:48:55;;;;;;;8.65;5.30;;;;;;;0.34;73.52;95825.88;4990205;28;20417;-77
2021/12/14 00:51:26;;;;;;;9.50;5.65;;;;;;;0.31;73.38;95818.16;4970764;28;20037;-76
2021/12/14 00:53:52;;;;;;;8.13;5.07;;;;;;;0.36;73.76;95820.50;5010999;28;20025;-78
2021/12/14 00:56:17;;;;;;;9.55;5.20;;;;;;;0.42;72.72;95819.25;5011649;28;20048;-77
2021/12/14 00:58:43;;;;;;;10.30;5.57;;;;;;;0.43;73.32;95813.00;5010872;28;20053;-77
2021/12/14 01:01:26;;;;;;;8.70;5.70;;;;;;;0.47;72.76;95812.69;4991092;28;20483;-77
2021/12/14 01:03:52;;;;;;;;;;;;;;;0.46;72.64;95816.28;4994744;28;20060;-76
2021/12/14 01:06:18;;;;;;;9.18;5.28;;;;;;;0.47;72.31;95815.31;5019380;28;19917;-76
2021/12/14 01:08:45;;;;;;;6.75;5.03;;;;;;;0.53;72.44;95822.00;5010730;28;20589;-77
2021/12/14 01:11:18;;;;;;;8.55;5.47;;;;;;;0.60;72.18;95817.97;4993929;28;20048;-76
2021/12/14 01:13:52;;;;;;;;;;;;;;;0.61;71.89;95821.47;5012556;28;20044;-76
2021/12/14 01:16:32;;;;;;;;;;;;;;;0.63;72.20;95816.09;5029564;28;19913;-78
2021/12/14 01:19:12;;;;;;;7.20;4.70;;;;;;;0.62;72.89;95823.16;5026740;28;19951;-77
2021/12/14 01:24:09;;;;;;;7.50;5.25;;;;;;;0.72;71.86;95829.50;5009656;28;20036;-76
2021/12/14 01:26:36;;;;;;;11.73;6.05;;;;;;;0.68;71.85;95820.09;5011272;28;20044;-78
2021/12/14 01:29:04;;;;;;;8.55;5.20;;;;;;;0.77;71.46;95823.03;5010586;28;20033;-77
2021/12/14 01:31:34;;;;;;;8.38;4.65;;;;;;;0.81;71.34;95820.06;5009132;28;20080;-78
2021/12/14 01:34:05;;;;;;;11.73;5.72;;;;;;;0.85;72.07;95831.28;5028445;28;20056;-77
2021/12/14 01:42:08;;;;;;;9.32;5.55;;;;;;;0.79;72.26;95818.50;5027437;28;20029;-77
2021/12/14 01:44:42;;;;;;;8.35;5.30;;;;;;;0.90;71.07;95817.75;4996040;28;20052;-76
2021/12/14 01:47:11;;;;;;;9.32;5.78;;;;;;;0.89;70.82;95808.16;5028258;28;20032;-76
2021/12/14 01:49:36;;;;;;;8.57;5.50;;;;;;;0.85;71.06;95808.34;5027032;28;20096;-77
2021/12/14 01:52:06;;;;;;;8.20;5.32;;;;;;;0.81;70.61;95813.94;5027922;28;20026;-75
2021/12/14 01:54:35;;;;;;;8.18;5.72;;;;;;;0.77;71.80;95818.63;5009711;28;20029;-76
2021/12/14 01:57:07;;;;;;;8.23;5.75;;;;;;;0.71;71.87;95813.75;4993961;28;20038;-77
2021/12/14 01:59:38;;;;;;;8.80;5.82;;;;;;;0.69;72.52;95820.94;4994380;28;20032;-77
2021/12/14 02:02:17;;;;;;;8.50;5.57;;;;;;;0.71;72.16;95822.50;5027109;28;20534;-76
2021/12/14 02:04:43;;;;;;;8.38;5.57;;;;;;;0.66;72.60;95823.78;5028010;28;20385;-77
2021/12/14 02:07:09;;;;;;;7.32;5.05;;;;;;;0.70;72.35;95818.19;4975610;28;20068;-76
2021/12/14 02:09:35;;;;;;;8.70;4.97;;;;;;;0.75;72.25;95817.88;4993879;28;20080;-77
2021/12/14 02:12:12;;;;;;;7.43;5.18;;;;;;;0.73;72.07;95817.13;5008629;28;20124;-77
2021/12/14 02:14:38;;;;;;;7.32;4.70;;;;;;;0.69;71.62;95815.66;4994354;28;20510;-76
2021/12/14 02:17:05;;;;;;;8.52;5.32;;;;;;;0.73;72.40;95817.13;5008998;28;20041;-77
2021/12/14 02:19:30;;;;;;;8.05;5.13;;;;;;;0.76;72.48;95821.34;4976487;28;20099;-76
2021/12/14 02:21:56;;;;;;;8.88;5.20;;;;;;;0.81;72.05;95820.06;5010011;28;20033;-75
2021/12/14 02:24:24;;;;;;;6.22;4.70;;;;;;;0.83;71.22;95823.47;4988594;28;20026;-76
2021/12/14 02:26:50;;;;;;;5.95;4.47;;;;;;;0.87;71.13;95813.53;4992374;28;20044;-76
2021/12/14 02:29:25;;;;;;;7.28;5.03;;;;;;;0.86;71.13;95817.97;5008839;28;20088;-75
2021/12/14 02:31:51;;;;;;;6.47;5.03;;;;;;;0.94;71.05;95824.50;4992804;28;20029;-76
2021/12/14 02:34:16;;;;;;;11.90;5.38;;;;;;;0.97;71.30;95819.84;5009352;28;20059;-75
2021/12/14 02:36:44;;;;;;;6.75;5.10;;;;;;;1.01;71.11;95827.56;4992571;28;20032;-78
2021/12/14 02:39:25;;;;;;;8.32;5.38;;;;;;;0.96;70.93;95825.25;5008983;28;20132;-77
2021/12/14 02:41:55;;;;;;;8.85;5.65;;;;;;;0.96;70.62;95817.31;4996077;28;20041;-76
2021/12/14 02:44:21;;;;;;;8.55;5.03;;;;;;;0.93;70.86;95817.53;4977582;28;20112;-77
2021/12/14 02:46:51;;;;;;;5.90;4.70;;;;;;;0.92;71.44;95819.31;4976359;28;20033;-78
2021/12/14 02:49:19;;;;;;;9.90;5.40;;;;;;;0.92;71.12;95816.69;5008411;28;20089;-76
2021/12/14 02:51:56;;;;;;;7.53;5.20;;;;;;;0.88;71.18;95830.22;4992875;28;20037;-77
2021/12/14 02:54:27;;;;;;;6.65;4.93;;;;;;;0.82;71.24;95828.84;4991721;28;20541;-78
2021/12/14 02:56:55;;;;;;;9.35;5.43;;;;;;;0.87;71.35;95834.66;5010429;28;20029;-75
2021/12/14 02:59:29;;;;;;;8.13;5.57;;;;;;;0.94;70.73;95840.34;4992064;28;20510;-77
2021/12/14 03:01:57;;;;;;;8.80;5.45;;;;;;;0.84;71.13;95837.50;5009096;28;20033;-78
2021/12/14 03:04:22;;;;;;;6.80;4.82;;;;;;;0.81;71.58;95835.06;5008720;28;20049;-76
2021/12/14 03:06:53;;;;;;;7.57;4.78;;;;;;;0.90;70.67;95833.59;5026227;28;20364;-78
2021/12/14 03:09:52;;;;;;;7.32;5.25;;;;;;;0.88;70.73;95824.94;5009117;28;20018;-75
2021/12/14 03:12:33;;;;;;;7.05;5.05;;;;;;;0.88;71.44;95835.50;5011644;28;20121;-76
2021/12/14 03:15:25;;;;;;;7.25;4.78;;;;;;;0.83;71.18;95831.38;5026615;28;20037;-77
2021/12/14 03:17:59;;;;;;;6.63;4.80;;;;;;;0.76;71.38;95827.47;5022706;28;20412;-76
2021/12/14 03:20:31;;;;;;;8.35;4.95;;;;;;;0.84;71.15;95834.84;5007546;28;20029;-77
2021/12/14 03:23:04;;;;;;;8.98;5.05;;;;;;;0.83;71.05;95836.66;5009673;28;20108;-76
2021/12/14 03:25:31;;;;;;;7.47;5.05;;;;;;;0.81;71.11;95835.06;5007886;28;20030;-76
2021/12/14 03:27:57;;;;;;;7.82;5.13;;;;;;;0.73;71.96;95832.97;5008503;28;20029;-76
2021/12/14 03:30:26;;;;;;;8.00;5.30;;;;;;;0.67;72.44;95830.75;5026242;28;20506;-75
2021/12/14 03:32:52;;;;;;;9.25;5.18;;;;;;;0.64;73.16;95834.44;5025817;28;20025;-78
2021/12/14 03:35:19;;;;;;;9.40;5.60;;;;;;;0.64;73.00;95834.44;5008993;28;20025;-75
2021/12/14 03:37:45;;;;;;;8.02;5.35;;;;;;;0.70;72.74;95834.03;5024798;28;20029;-77
2021/12/14 03:40:10;;;;;;;8.82;5.85;;;;;;;0.63;72.55;95831.91;5008602;28;20056;-76
2021/12/14 03:42:38;;;;;;;8.73;5.47;;;;;;;0.70;72.71;95834.03;5025218;28;20034;-78
2021/12/14 03:45:09;;;;;;;8.77;5.72;;;;;;;0.66;73.16;95831.72;5008928;28;20082;-76
2021/12/14 03:47:40;;;;;;;9.65;5.55;;;;;;;0.81;72.03;95837.72;5008074;28;20053;-79
2021/12/14 03:50:21;;;;;;;6.47;5.40;;;;;;;0.85;72.38;95842.66;5008419;28;20122;-78
2021/12/14 03:52:46;;;;;;;6.35;5.00;;;;;;;0.86;71.66;95838.25;4990045;28;20516;-77
2021/12/14 03:55:22;;;;;;;7.65;5.18;;;;;;;0.76;72.22;95835.38;5003808;28;20045;-77
2021/12/14 03:57:47;;;;;;;9.38;5.15;;;;;;;0.78;72.88;95840.56;5008203;28;20048;-74
2021/12/14 04:00:25;;;;;;;11.82;7.47;;;;;;;0.78;72.72;95841.41;5007662;28;20029;-77
2021/12/14 04:02:51;;;;;;;14.57;7.28;;;;;;;0.86;72.42;95844.38;4991534;28;20500;-77
2021/12/14 04:05:17;;;;;;;11.38;6.90;;;;;;;0.77;73.20;95845.03;5012006;28;20035;-76
2021/12/14 04:07:43;;;;;;;13.40;7.05;;;;;;;0.80;73.79;95857.16;5011341;28;20477;-76
2021/12/14 04:10:19;;;;;;;10.65;6.07;;;;;;;0.71;73.70;95853.38;5030622;28;20022;-76
2021/12/14 04:12:45;;;;;;;9.15;6.93;;;;;;;0.77;73.91;95846.81;5028893;28;20417;-79
2021/12/14 04:15:10;;;;;;;10.38;6.55;;;;;;;0.72;74.12;95860.31;5032537;28;20553;-79
2021/12/14 04:17:36;;;;;;;10.15;6.88;;;;;;;0.78;73.51;95853.75;5013106;28;20025;-78
2021/12/14 04:20:08;;;;;;;9.40;6.70;;;;;;;0.81;73.37;95850.91;4997745;28;20049;-77
2021/12/14 04:22:33;;;;;;;9.55;6.63;;;;;;;0.85;73.30;95857.69;4995723;28;20409;-76
2021/12/14 04:25:01;;;;;;;11.38;7.57;;;;;;;0.82;73.53;95853.44;5026834;28;20036;-76
2021/12/14 04:27:27;;;;;;;10.60;7.03;;;;;;;0.86;74.17;95860.22;4996636;28;20029;-76
2021/12/14 04:29:53;;;;;;;12.10;7.30;;;;;;;0.82;74.03;95857.91;5010580;28;20511;-77
2021/12/14 04:32:20;;;;;;;13.15;7.50;;;;;;;0.79;74.36;95861.56;4996012;28;20025;-76
2021/12/14 04:34:48;;;;;;;12.48;7.07;;;;;;;0.81;74.36;95872.88;5010962;28;20033;-75
2021/12/14 04:37:15;;;;;;;11.63;7.72;;;;;;;0.74;74.83;95871.63;4995647;28;20088;-77
2021/12/14 04:39:49;;;;;;;11.93;7.72;;;;;;;0.80;74.50;95865.94;4995624;28;20029;-77
2021/12/14 04:53:22;;;;;;;10.60;6.60;;;;;;;0.80;74.69;95881.78;5014756;28;20036;-77
2021/12/14 04:55:48;;;;;;;10.25;6.82;;;;;;;0.91;73.57;95881.03;5028107;28;20025;-76
2021/12/14 04:58:14;;;;;;;10.50;6.82;;;;;;;0.84;73.63;95874.47;5030327;28;20033;-74
2021/12/14 05:00:43;;;;;;;10.25;6.50;;;;;;;0.89;74.53;95875.00;5010706;28;20049;-76
2021/12/14 05:03:31;;;;;;;9.98;6.30;;;;;;;0.88;73.68;95877.75;5028767;28;20412;-76
2021/12/14 05:06:09;;;;;;;9.75;6.50;;;;;;;0.90;73.75;95876.72;4994734;28;20112;-77
2021/12/14 05:11:03;;;;;;;11.88;7.15;;;;;;;0.84;74.06;95877.97;5011752;28;20024;-79
2021/12/14 05:13:34;;;;;;;10.00;6.95;;;;;;;0.81;73.18;95880.81;4992872;28;20022;-77
2021/12/14 05:15:59;;;;;;;10.10;6.25;;;;;;;0.86;73.42;95881.34;5010813;28;20032;-76
2021/12/14 05:18:25;;;;;;;8.48;5.80;;;;;;;0.94;73.39;95885.25;5028763;28;20025;-77
2021/12/14 05:20:50;;;;;;;9.20;6.03;;;;;;;0.94;73.04;95882.59;5027560;28;20033;-77
2021/12/14 05:23:24;;;;;;;10.75;6.40;;;;;;;0.78;72.95;95888.94;4994793;28;20021;-75
2021/12/14 05:25:50;;;;;;;9.00;6.20;;;;;;;0.78;73.34;95882.81;4994079;28;20031;-77
2021/12/14 05:28:17;;;;;;;10.20;6.80;;;;;;;0.86;72.93;95891.06;5027798;28;20083;-76
2021/12/14 05:30:44;;;;;;;10.55;6.00;;;;;;;0.91;73.67;95890.75;5010245;28;20599;-77
2021/12/14 05:33:13;;;;;;;12.88;6.28;;;;;;;0.91;73.50;95891.59;5010557;28;20470;-75
2021/12/14 05:35:39;;;;;;;9.82;6.25;;;;;;;0.93;72.84;95886.19;4994559;28;20029;-75
2021/12/14 05:38:12;;;;;;;8.43;6.05;;;;;;;0.91;72.45;95883.66;5009919;28;20033;-76
2021/12/14 05:41:08;;;;;;;8.48;6.13;;;;;;;0.88;72.83;95886.53;5010392;28;20462;-77
2021/12/14 05:43:31;;;;;;;9.95;6.00;;;;;;;0.89;73.46;95895.31;5011583;28;20069;-74
2021/12/14 05:45:59;;;;;;;8.75;6.15;;;;;;;0.89;73.01;95892.66;5010838;28;20187;-76
2021/12/14 05:48:26;;;;;;;9.98;6.18;;;;;;;0.93;72.26;95887.06;5027707;28;20468;-77
2021/12/14 05:50:55;;;;;;;9.40;6.13;;;;;;;0.95;73.09;95903.63;5009840;28;20067;-77
2021/12/14 05:53:25;;;;;;;8.10;6.13;;;;;;;0.98;72.20;95892.84;5027560;28;20119;-76
2021/12/14 05:55:50;;;;;;;8.98;6.18;;;;;;;0.99;72.80;95891.06;5008967;28;20029;-77
2021/12/14 05:58:18;;;;;;;9.80;5.93;;;;;;;1.06;72.13;95897.63;5028217;28;20412;-78
2021/12/14 06:00:45;;;;;;;9.35;6.10;;;;;;;1.09;71.34;95900.06;5009126;28;20036;-76
2021/12/14 06:03:16;;;;;;;9.38;5.88;;;;;;;1.06;71.86;95908.19;5010649;28;20034;-78
2021/12/14 06:05:41;;;;;;;9.90;6.18;;;;;;;1.07;71.24;95909.00;5009984;28;20075;-77
2021/12/14 06:08:07;;;;;;;8.18;5.70;;;;;;;1.06;71.47;95916.13;5009917;28;20408;-76
2021/12/14 06:10:32;;;;;;;8.88;6.90;;;;;;;1.15;71.35;95913.75;5009824;28;20029;-76
2021/12/14 06:12:58;;;;;;;9.35;6.30;;;;;;;1.14;71.72;95915.59;4992982;28;20033;-75
2021/12/14 06:15:27;;;;;;;9.07;5.93;;;;;;;1.17;70.70;95911.88;4993882;28;20462;-78
2021/12/14 06:17:53;;;;;;;9.18;5.97;;;;;;;1.18;71.41;95917.03;5009275;28;20046;-75
2021/12/14 06:20:21;;;;;;;10.05;5.93;;;;;;;1.18;70.41;95916.19;4994042;28;20033;-77
2021/12/14 06:22:47;;;;;;;9.27;6.15;;;;;;;1.12;71.16;95920.13;4992914;28;20024;-77
2021/12/14 06:25:17;;;;;;;11.88;6.65;;;;;;;1.10;71.14;95924.66;4992605;28;20073;-76
2021/12/14 06:27:43;;;;;;;11.63;6.32;;;;;;;1.14;71.32;95912.09;5009698;28;20021;-76
2021/12/14 06:30:26;;;;;;;10.40;6.65;;;;;;;1.13;71.42;95915.69;5008793;28;20455;-74
2021/12/14 06:33:01;;;;;;;9.60;5.72;;;;;;;1.18;70.78;95918.84;5027236;28;20545;-78
2021/12/14 06:35:29;;;;;;;11.23;5.90;;;;;;;1.17;70.83;95919.78;4992868;28;20033;-78
2021/12/14 06:38:25;;;;;;;9.38;5.80;;;;;;;1.11;71.10;95927.19;5009971;28;20034;-77
2021/12/14 06:40:55;;;;;;;10.95;5.43;;;;;;;1.15;71.10;95926.97;5027107;28;20038;-76
2021/12/14 06:43:23;;;;;;;9.93;6.35;;;;;;;1.16;71.13;95926.03;5009069;28;20075;-74
2021/12/14 06:45:57;;;;;;;8.88;5.65;;;;;;;1.17;70.49;95925.94;5009940;28;20451;-77
2021/12/14 06:48:27;;;;;;;9.88;5.63;;;;;;;1.17;70.07;95936.50;5025337;28;20048;-77
2021/12/14 06:51:17;;;;;;;9.80;5.90;;;;;;;1.15;70.97;95943.69;5009498;28;20033;-77
2021/12/14 06:53:44;;;;;;;8.70;5.47;;;;;;;1.06;70.57;95945.19;5012020;28;20034;-78
2021/12/14 06:56:11;;;;;;;9.82;5.70;;;;;;;1.07;71.07;95952.13;4988987;28;20026;-77
2021/12/14 06:58:44;;;;;;;8.57;6.13;;;;;;;1.15;71.43;95948.13;4987389;28;20128;-78
2021/12/14 07:01:13;;;;;;;10.75;5.97;;;;;;;1.17;71.35;95948.88;5007349;28;20493;-78
2021/12/14 07:03:50;;;;;;;9.05;5.68;;;;;;;1.21;71.15;95953.81;5008988;28;20130;-77
2021/12/14 07:06:48;;;;;;;9.15;5.32;;;;;;;1.28;70.92;95954.25;5008145;28;20044;-78
2021/12/14 07:09:24;;;;;;;8.05;5.18;;;;;;;1.27;70.67;95957.84;4988617;28;20034;-76
2021/12/14 07:11:58;;;;;;;8.35;5.30;;;;;;;1.26;71.05;95960.59;4995648;28;20033;-78
2021/12/14 07:14:27;;;;;;;9.18;5.75;;;;;;;1.33;70.62;95968.00;5024484;28;20693;-77
2021/12/14 07:17:01;;;;;;;9.40;6.20;;;;;;;1.25;70.65;95967.69;5026752;28;20029;-77
2021/12/14 07:19:46;;;;;;;7.93;5.60;;;;;;;1.32;70.94;95968.94;5008942;28;20053;-77
2021/12/14 07:22:32;;;;;;;;;;;;;;;1.29;71.47;95969.16;5009866;28;20037;-77
2021/12/14 07:25:09;;;;;;;10.13;5.50;;;;;;;1.33;71.41;95970.66;5016388;28;19913;-77
2021/12/14 07:27:50;;;;;;;9.10;5.88;;;;;;;1.35;71.68;95981.94;5025590;28;20080;-76
2021/12/14 07:30:27;;;;;;;9.85;6.03;;;;;;;1.31;72.20;95974.31;5026316;28;20041;-76
2021/12/14 07:33:05;;;;;;;11.45;6.10;;;;;;;1.38;72.01;95978.25;5009963;28;20033;-77
2021/12/14 07:35:35;;;;;;;10.60;5.63;;;;;;;1.41;71.77;95972.75;5007450;28;20112;-76
2021/12/14 07:38:28;;;;;;;8.95;6.07;;;;;;;1.44;71.89;95976.97;5026832;28;20025;-77
2021/12/14 07:41:12;;;;;;;9.00;6.25;;;;;;;1.44;72.16;95979.59;5005994;28;20534;-76
2021/12/14 07:43:43;;;;;;;9.18;6.43;;;;;;;1.47;72.48;95980.25;5025697;28;20025;-76
2021/12/14 07:46:27;;;;;;;9.38;6.15;;;;;;;1.43;72.26;95980.56;5008707;28;20444;-74
2021/12/14 07:48:55;;;;;;;9.70;6.18;;;;;;;1.52;72.13;95984.34;5024973;28;20049;-76
2021/12/14 07:51:22;;;;;;;10.73;6.35;;;;;;;1.47;72.68;95990.81;5026649;28;20103;-75
2021/12/14 07:53:53;;;;;;;9.90;6.50;;;;;;;1.48;72.94;95991.69;4992166;28;20041;-74
2021/12/14 07:56:34;;;;;;;10.82;7.43;;;;;;;1.47;72.97;95993.47;5026029;28;20029;-76
2021/12/14 07:59:00;;;;;;;9.82;6.70;;;;;;;1.43;73.42;95993.78;5010106;28;20037;-76
2021/12/14 08:01:26;;;;;;;11.13;6.40;;;;;;;1.48;73.25;95994.31;5007709;28;20040;-77
2021/12/14 08:04:02;;;;;;;11.77;6.65;;;;;;;1.60;72.79;96004.03;4992248;28;20041;-77
2021/12/14 08:06:27;;;;;;;10.02;6.53;;;;;;;1.60;72.82;95995.25;5007486;28;20030;-77
2021/12/14 08:08:55;;;;;;;10.10;6.97;;;;;;;1.66;72.33;96000.09;4991853;28;20059;-77
2021/12/14 08:14:04;;;;;;;12.23;7.45;;;;;;;1.67;72.68;96009.75;5025711;28;20034;-77
2021/12/14 08:16:48;;;;;;;10.27;7.30;;;;;;;1.68;72.87;96002.66;5025982;28;20056;-76
2021/12/14 08:19:35;;;;;;;11.52;7.57;;;;;;;1.66;72.74;96009.84;5025201;28;20029;-75
2021/12/14 08:22:13;;;;;;;12.60;7.53;;;;;;;1.67;73.63;96009.75;5025737;28;20053;-75
2021/12/14 08:24:39;;;;;;;12.60;7.78;;;;;;;1.71;72.94;96013.00;4993026;28;20030;-74
2021/12/14 08:27:06;;;;;;;13.43;8.15;;;;;;;1.69;73.11;96009.63;5025174;28;20037;-75
2021/12/14 08:29:33;;;;;;;10.20;7.28;;;;;;;1.70;73.67;96009.53;5026336;28;20029;-75
2021/12/14 08:32:11;;;;;;;10.18;7.53;;;;;;;1.72;73.32;96014.72;5006900;28;20423;-74
2021/12/14 08:34:40;;;;;;;13.90;8.55;;;;;;;1.83;73.00;96017.47;5009611;28;20052;-75
2021/12/14 08:37:14;;;;;;;12.82;8.50;;;;;;;1.88;73.38;96009.19;4991275;28;20032;-76
2021/12/14 08:39:44;;;;;;;12.73;8.13;;;;;;;1.99;72.18;96016.34;5025520;28;20029;-75
2021/12/14 08:42:16;;;;;;;12.98;8.18;;;;;;;1.90;72.62;96009.09;5008085;28;20519;-76
2021/12/14 08:44:50;;;;;;;12.90;9.05;;;;;;;1.94;72.35;96007.91;5007583;28;20120;-77
2021/12/14 08:47:21;;;;;;;11.73;8.48;;;;;;;1.97;72.58;96012.97;5010578;28;20033;-76
2021/12/14 08:49:47;;;;;;;12.00;8.13;;;;;;;1.96;72.71;96006.84;5010463;28;20534;-76
2021/12/14 08:52:12;;;;;;;15.15;9.23;;;;;;;2.01;72.47;96001.22;4995510;28;20025;-75
2021/12/14 08:54:39;;;;;;;12.98;8.20;;;;;;;2.01;72.94;96003.03;5029012;28;20033;-76
2021/12/14 08:57:14;;;;;;;11.57;8.10;;;;;;;2.06;72.66;96004.38;4994469;28;20029;-76
2021/12/14 08:59:42;;;;;;;11.88;8.20;;;;;;;2.04;72.97;95998.38;4980001;28;20163;-77
2021/12/14 09:02:08;;;;;;;14.18;9.13;;;;;;;2.14;72.41;95987.09;5010402;28;20176;-75
2021/12/14 09:04:40;;;;;;;14.32;8.73;;;;;;;2.15;72.40;95988.78;5011594;28;20527;-79
2021/12/14 09:07:11;;;;;;;13.23;8.82;;;;;;;2.09;73.03;95990.94;5011180;28;20037;-78
2021/12/14 09:09:41;;;;;;;12.98;8.57;;;;;;;2.11;72.63;95990.84;4995360;28;20040;-76
2021/12/14 09:12:28;;;;;;;10.50;7.53;;;;;;;2.13;72.50;95990.72;5011181;28;20060;-77
2021/12/14 09:14:55;;;;;;;10.63;7.80;;;;;;;2.14;72.76;95985.31;5010284;28;20079;-75
2021/12/14 09:17:22;;;;;;;12.02;7.88;;;;;;;2.12;72.53;95986.38;5028942;28;20067;-78
2021/12/14 09:19:59;;;;;;;11.75;8.15;;;;;;;2.08;73.16;95981.28;5010398;28;20123;-77
2021/12/14 09:22:30;;;;;;;12.30;8.20;;;;;;;2.15;72.67;95988.78;4995222;28;20033;-78
2021/12/14 09:24:56;;;;;;;12.02;8.63;;;;;;;2.06;73.19;95988.50;5010338;28;20025;-78
2021/12/14 09:27:24;;;;;;;14.30;8.85;;;;;;;2.15;72.94;95979.06;5010570;28;20107;-75
2021/12/14 09:29:49;;;;;;;11.70;8.32;;;;;;;2.24;71.86;95976.69;5010703;28;20022;-76
2021/12/14 09:32:22;;;;;;;14.15;8.75;;;;;;;2.14;72.11;95977.38;5009905;28;20040;-77
2021/12/14 09:34:48;;;;;;;;;;;;;;;2.08;72.86;95973.34;5029428;28;20036;-73
2021/12/14 09:37:13;;;;;;;13.00;7.55;;;;;;;2.07;72.65;95978.75;5009481;28;19913;-74
2021/12/14 09:39:51;;;;;;;14.60;8.82;;;;;;;2.09;72.56;95971.56;5028694;28;20025;-75
2021/12/14 09:42:19;;;;;;;15.60;9.07;;;;;;;2.18;73.64;95972.69;5027799;28;20026;-76
2021/12/14 09:44:45;;;;;;;15.93;9.93;;;;;;;2.27;72.68;95965.88;5010097;28;20040;-78
2021/12/14 09:47:17;;;;;;;16.13;9.35;;;;;;;2.29;72.67;95963.97;5010393;28;20022;-77
2021/12/14 09:49:43;;;;;;;18.95;9.93;;;;;;;2.36;72.61;95957.25;5027197;28;20502;-77
2021/12/14 09:52:11;;;;;;;16.45;9.45;;;;;;;2.44;71.84;95959.34;5028324;28;20052;-77
2021/12/14 09:54:37;;;;;;;16.45;9.50;;;;;;;2.50;71.25;95960.72;5027201;28;20474;-76
2021/12/14 09:57:09;;;;;;;16.52;10.30;;;;;;;2.50;71.70;95950.94;4977618;28;20033;-76
2021/12/14 09:59:37;;;;;;;16.47;10.07;;;;;;;2.55;71.53;95958.53;4977426;28;20025;-77
2021/12/14 10:02:12;;;;;;;15.05;9.32;;;;;;;2.52;71.34;95950.81;5009586;28;20087;-75
2021/12/14 10:04:56;;;;;;;15.00;9.15;;;;;;;2.54;71.29;95954.22;5028020;28;20025;-76
2021/12/14 10:07:22;;;;;;;14.15;8.77;;;;;;;2.55;71.67;95954.09;5026711;28;20040;-77
2021/12/14 10:09:48;;;;;;;13.35;7.93;;;;;;;2.53;71.69;95955.19;5010547;28;20053;-74
2021/12/14 10:15:33;;;;;;;15.18;9.45;;;;;;;2.66;71.86;95950.66;5028236;28;20435;-73
2021/12/14 10:18:01;;;;;;;13.20;9.02;;;;;;;2.61;71.89;95950.16;4993328;28;20136;-77
2021/12/14 10:20:32;;;;;;;14.50;9.48;;;;;;;2.77;71.27;95951.66;5026624;28;20030;-74
2021/12/14 10:22:58;;;;;;;13.45;8.23;;;;;;;2.74;70.51;95939.47;5029050;28;20017;-75
2021/12/14 10:25:25;;;;;;;14.43;9.15;;;;;;;2.71;71.27;95937.06;5027032;28;20033;-78
2021/12/14 10:27:53;;;;;;;17.08;9.73;;;;;;;2.79;71.52;95937.31;5027203;28;20415;-75
2021/12/14 10:30:29;;;;;;;15.13;10.07;;;;;;;2.81;71.24;95938.06;4993766;28;20108;-76
2021/12/14 10:32:54;;;;;;;16.83;10.43;;;;;;;2.86;71.16;95945.66;4977310;28;20037;-76
2021/12/14 10:35:23;;;;;;;15.23;8.68;;;;;;;2.94;71.05;95934.47;5009799;28;20110;-76
2021/12/14 10:43:15;;;;;;;15.90;9.63;;;;;;;2.95;70.78;95938.81;4999043;28;20039;-78
2021/12/14 10:46:06;;;;;;;14.57;9.40;;;;;;;2.99;71.15;95937.63;5010202;28;20040;-75
2021/12/14 10:48:35;;;;;;;13.18;9.05;;;;;;;2.94;70.84;95934.47;5027351;28;20026;-79
2021/12/14 10:51:04;;;;;;;14.00;9.45;;;;;;;2.96;70.83;95930.75;4992150;28;20064;-79
2021/12/14 10:53:29;;;;;;;13.65;9.00;;;;;;;2.99;70.82;95929.66;5009833;28;20037;-77
2021/12/14 10:55:58;;;;;;;15.52;9.25;;;;;;;3.02;70.47;95929.44;5008814;28;20381;-77
2021/12/14 10:58:27;;;;;;;13.25;8.77;;;;;;;3.07;70.08;95929.06;5008361;28;20022;-75
2021/12/14 11:01:01;;;;;;;12.02;8.68;;;;;;;3.07;69.37;95935.22;5026751;28;20460;-78
2021/12/14 11:03:29;;;;;;;15.90;9.75;;;;;;;3.02;69.93;95929.44;5008229;28;20036;-74
2021/12/14 11:05:57;;;;;;;14.00;9.10;;;;;;;2.81;70.34;95922.16;4993405;28;20458;-75
2021/12/14 11:08:44;;;;;;;15.60;9.40;;;;;;;2.83;70.22;95925.56;5025606;28;20028;-75
2021/12/14 11:11:13;;;;;;;12.73;8.00;;;;;;;2.81;69.86;95927.47;5011771;28;20033;-75
2021/12/14 11:13:44;;;;;;;12.80;7.82;;;;;;;2.74;70.07;95926.22;5026278;28;20034;-76
2021/12/14 11:16:17;;;;;;;13.45;8.63;;;;;;;2.74;70.53;95928.88;5026092;28;20022;-76
2021/12/14 11:18:43;;;;;;;15.20;9.27;;;;;;;2.69;70.99;95918.63;5026767;28;20064;-77
2021/12/14 11:21:12;;;;;;;17.02;10.18;;;;;;;2.65;71.41;95914.53;5007949;28;20076;-77
2021/12/14 11:23:40;;;;;;;13.75;9.27;;;;;;;2.70;71.01;95919.47;5026655;28;20018;-76
2021/12/14 11:26:16;;;;;;;15.48;9.88;;;;;;;2.67;71.35;95919.72;5026025;28;20045;-76
2021/12/14 11:28:42;;;;;;;17.35;9.65;;;;;;;2.75;71.03;95913.84;5008117;28;20021;-76
2021/12/14 11:31:11;;;;;;;12.90;8.25;;;;;;;2.78;70.71;95917.09;5026374;28;20032;-75
2021/12/14 11:33:49;;;;;;;16.77;9.45;;;;;;;2.80;71.42;95909.88;5025578;28;20037;-75
2021/12/14 11:36:31;;;;;;;14.52;9.00;;;;;;;2.75;70.84;95912.03;5011008;28;20132;-76
2021/12/14 11:38:57;;;;;;;15.30;10.38;;;;;;;2.55;71.64;95909.09;5023328;28;20045;-74
2021/12/14 11:41:49;;;;;;;15.00;9.73;;;;;;;2.76;71.20;95903.13;5026673;28;20025;-75
2021/12/14 11:44:32;;;;;;;15.52;9.20;;;;;;;2.74;71.69;95905.03;5026568;28;20482;-74
2021/12/14 11:47:11;;;;;;;17.38;11.15;;;;;;;2.74;71.28;95910.31;5007629;28;20033;-75
2021/12/14 11:49:52;;;;;;;17.00;10.90;;;;;;;2.69;70.71;95913.31;5026515;28;20133;-76
2021/12/14 11:52:38;;;;;;;19.25;10.77;;;;;;;2.58;70.82;95906.19;5025799;28;20050;-75
2021/12/14 11:55:19;;;;;;;14.82;9.52;;;;;;;2.61;70.96;95909.59;5025743;28;20041;-74
2021/12/14 11:57:44;;;;;;;17.00;10.60;;;;;;;2.59;71.18;95902.63;5026414;28;20032;-75
2021/12/14 12:00:17;;;;;;;19.40;11.93;;;;;;;2.63;71.08;95902.38;5008239;28;20392;-75
2021/12/14 12:02:42;;;;;;;19.05;11.73;;;;;;;2.58;71.38;95900.91;5026320;28;20101;-77
2021/12/14 12:05:19;;;;;;;19.48;11.75;;;;;;;2.57;71.53;95901.03;5025863;28;20030;-78
2021/12/14 12:10:37;;;;;;;18.33;11.10;;;;;;;2.55;71.81;95901.13;4997694;28;20037;-75
2021/12/14 12:13:02;;;;;;;22.45;12.15;;;;;;;2.55;72.05;95901.13;5025211;28;20092;-77
2021/12/14 12:15:28;;;;;;;19.63;10.85;;;;;;;2.45;72.19;95887.75;5008797;28;20038;-75
2021/12/14 12:17:59;;;;;;;18.80;10.68;;;;;;;2.42;72.81;95900.38;5025335;28;20045;-75
2021/12/14 12:20:28;;;;;;;20.33;11.35;;;;;;;2.43;72.71;95899.41;5025854;28;20463;-75
2021/12/14 12:23:27;;;;;;;20.75;11.73;;;;;;;2.43;73.28;95896.78;5010541;28;20029;-75
2021/12/14 12:26:00;;;;;;;16.92;10.80;;;;;;;2.33;73.26;95891.31;5008454;28;20095;-76
2021/12/14 12:28:32;;;;;;;20.13;12.07;;;;;;;2.27;73.42;95892.63;5012966;28;20021;-76
2021/12/14 12:31:04;;;;;;;19.77;10.95;;;;;;;2.34;73.15;95893.84;5011696;28;20296;-75
2021/12/14 12:33:41;;;;;;;20.50;10.30;;;;;;;2.28;73.00;95890.81;5029297;28;20384;-75
2021/12/14 12:36:09;;;;;;;15.93;9.40;;;;;;;2.29;72.86;95884.56;5013272;28;20267;-76